cgv5 weather

Grand Valley (Black Field)
Ontario, Canada

Public forecast

Using degrees Celsius for public forecast. Weather courtesy of forecast.io.

Closest aviation weather report (METAR) to Grand Valley (Black Field)

Closest report is Waterloo Airport, 24.3 nm (45.0 km) S. Retrieved 2020/08/06 10:11 UTC (0 seconds ago):

CYKF 061011Z AUTO 35003KT 1/2SM FG CLR 09/09 A3015 RMK VIS VRB 1/8-3 SLP213

Closest aviation forecast (TAF) to Grand Valley (Black Field)

Closest forecast is Waterloo Airport, 24.3 nm (45.0 km) S. Retrieved 2020/08/06 08:42 UTC (1 hour ago):

TAF CYKF 060738Z 0608/0620 VRB03KT P6SM SCT250 FM061600 32007KT P6SM BKN060 RMK FCST BASED ON AUTO OBS NXT FCST BY 061400Z